Nashville, Tennessee
Traffic Map
Current Weather Conditions
Nashville, Tennessee
Broken Clouds
Broken Clouds
37°
Feels Like: 26°
Wind Chill: 26° Ceiling: 14000
Heat Index: 37° Visibility: 10mi
Dew Point: 26° Wind: 24mph
Humidity: 65% Direction: 360° (N)
Pressure: 30.23in Gusts: 30mph
Raw Report DataKBNA 011153Z 36021G26KT 10SM SCT030 BKN140 03/M03 A3023 RMK AO2 PK WND 36026/1152 SLP240 70002 T00281033 10044 20028 53023
Traffic Incident Summary
Active as of:
Severity:
Category:
InformationThere was an issue retrieving the traffic information for this location. Please try a different location or try again shortly.
Advertisements
Track Severe Weather on mobile